Time;durP1;ratioP1;P1;durP2;ratioP2;P2;SDS_P1;SDS_P2;PMS_P1;PMS_P2;Temp;Humidity;BMP_temperature;BMP_pressure;BME280_temperature;BME280_humidity;BME280_pressure;Samples;Min_cycle;Max_cycle;Signal;HPM_P1;HPM_P2
2021/12/05 00:17:05;;;;;;;9.93;3.10;;;4.30;99.90;;;;;;5010036;28;20220;-67
2021/12/05 00:20:47;;;;;;;6.87;3.43;;;3.80;99.90;;;;;;5009492;28;20238;-68
2021/12/05 00:23:21;;;;;;;5.57;3.03;;;3.80;99.90;;;;;;5006387;28;20215;-67
2021/12/05 00:25:53;;;;;;;7.37;3.97;;;3.80;99.90;;;;;;5009670;28;20581;-68
2021/12/05 00:52:16;;;;;;;5.53;3.77;;;4.10;99.90;;;;;;5009938;28;20752;-67
2021/12/05 01:02:44;;;;;;;7.27;4.00;;;4.30;99.90;;;;;;5006526;28;20299;-68
2021/12/05 01:15:50;;;;;;;6.87;3.63;;;4.40;99.90;;;;;;5009425;28;20207;-67
2021/12/05 01:18:19;;;;;;;8.97;4.23;;;4.40;99.90;;;;;;5007336;28;20283;-68
2021/12/05 01:20:53;;;;;;;14.70;5.87;;;4.50;99.90;;;;;;5009388;28;20224;-68
2021/12/05 01:23:51;;;;;;;11.27;4.23;;;4.40;99.90;;;;;;5009865;28;20223;-68
2021/12/05 01:26:20;;;;;;;10.27;3.87;;;4.50;99.90;;;;;;5011694;28;20682;-68
2021/12/05 01:34:02;;;;;;;8.07;3.93;;;4.60;99.90;;;;;;5013323;28;20372;-68
2021/12/05 01:39:29;;;;;;;9.70;5.07;;;4.70;99.90;;;;;;5013170;28;20196;-68
2021/12/05 01:56:07;;;;;;;6.20;3.23;;;4.30;99.90;;;;;;5012199;28;20201;-70
2021/12/05 02:01:28;;;;;;;7.37;3.40;;;4.40;99.90;;;;;;5012436;28;20312;-69
2021/12/05 02:12:24;;;;;;;8.67;3.30;;;4.30;99.90;;;;;;5011759;28;20195;-68
2021/12/05 02:31:59;;;;;;;9.23;3.07;;;4.00;99.90;;;;;;5011662;28;20210;-69
2021/12/05 02:40:25;;;;;;;8.67;3.23;;;4.10;99.90;;;;;;5009733;28;20220;-70
2021/12/05 02:45:22;;;;;;;8.43;3.27;;;4.10;99.90;;;;;;5003060;28;20194;-70
2021/12/05 02:47:51;;;;;;;9.90;3.13;;;4.20;99.90;;;;;;5011527;28;20199;-68
2021/12/05 02:50:22;;;;;;;6.03;2.90;;;4.20;99.90;;;;;;5009992;28;20215;-68
2021/12/05 02:52:50;;;;;;;5.10;2.90;;;4.30;99.90;;;;;;5005344;28;20702;-67
2021/12/05 02:55:35;;;;;;;8.03;3.23;;;4.30;99.90;;;;;;5009266;28;20199;-68
2021/12/05 02:58:14;;;;;;;6.80;2.77;;;4.30;99.90;;;;;;5007059;28;20584;-68
2021/12/05 03:01:10;;;;;;;10.33;3.43;;;4.30;99.90;;;;;;4991928;28;20225;-68
2021/12/05 03:03:33;;;;;;;8.00;2.73;;;4.40;99.90;;;;;;5010576;28;20242;-68
2021/12/05 03:06:12;;;;;;;6.23;2.70;;;4.40;99.90;;;;;;5011201;28;20200;-68
2021/12/05 03:08:39;;;;;;;7.17;3.20;;;4.40;99.90;;;;;;5011549;28;20200;-68
2021/12/05 03:11:06;;;;;;;7.83;3.10;;;4.40;99.90;;;;;;5012777;28;20213;-68
2021/12/05 03:13:35;;;;;;;10.37;2.90;;;4.40;99.90;;;;;;5009325;28;20230;-68
2021/12/05 03:16:03;;;;;;;8.97;2.30;;;4.50;99.90;;;;;;5011822;28;20253;-67
2021/12/05 03:18:30;;;;;;;6.63;2.67;;;4.50;99.90;;;;;;5011817;28;20196;-68
2021/12/05 03:20:58;;;;;;;11.43;3.00;;;4.60;99.90;;;;;;5009882;28;20274;-67
2021/12/05 03:23:26;;;;;;;9.90;2.50;;;4.60;99.90;;;;;;5011507;28;20291;-68
2021/12/05 03:25:53;;;;;;;7.70;2.53;;;4.70;99.90;;;;;;5012110;28;20570;-68
2021/12/05 03:28:20;;;;;;;5.07;2.07;;;4.70;99.90;;;;;;5012352;28;20200;-68
2021/12/05 03:30:47;;;;;;;6.17;2.20;;;4.80;99.90;;;;;;5011486;28;20196;-68
2021/12/05 03:33:13;;;;;;;7.00;2.13;;;4.80;99.90;;;;;;5005256;28;20248;-68
2021/12/05 03:35:40;;;;;;;9.73;2.17;;;4.80;99.90;;;;;;5010042;28;20215;-68
2021/12/05 03:38:07;;;;;;;6.73;2.10;;;4.90;99.90;;;;;;5007276;28;20665;-68
2021/12/05 03:40:35;;;;;;;10.03;2.43;;;4.90;99.90;;;;;;5011070;28;20219;-68
2021/12/05 03:43:08;;;;;;;8.57;2.10;;;4.80;99.90;;;;;;5011416;28;20692;-68
2021/12/05 03:45:41;;;;;;;7.70;2.33;;;4.80;99.90;;;;;;5010467;28;20196;-68
2021/12/05 03:48:10;;;;;;;8.50;2.50;;;4.80;99.90;;;;;;5007003;28;20622;-68
2021/12/05 03:50:37;;;;;;;8.00;2.33;;;4.70;99.90;;;;;;5011042;28;20200;-68
2021/12/05 03:53:06;;;;;;;6.47;2.03;;;4.80;99.90;;;;;;5010770;28;20618;-68
2021/12/05 03:55:34;;;;;;;5.67;2.00;;;4.80;99.90;;;;;;5008749;28;20200;-67
2021/12/05 03:58:01;;;;;;;5.33;1.70;;;4.80;99.90;;;;;;5011634;28;20572;-68
2021/12/05 04:00:31;;;;;;;8.60;2.17;;;4.90;99.90;;;;;;5010269;28;20229;-67
2021/12/05 04:03:02;;;;;;;5.03;2.23;;;4.90;99.90;;;;;;5010292;28;20223;-68
2021/12/05 04:05:31;;;;;;;6.40;1.97;;;4.90;99.90;;;;;;5007499;28;20228;-68
2021/12/05 04:07:58;;;;;;;5.63;2.10;;;4.90;99.90;;;;;;5010510;28;20194;-68
2021/12/05 04:10:27;;;;;;;5.33;1.90;;;5.00;99.90;;;;;;5010645;28;20204;-68
2021/12/05 04:12:55;;;;;;;5.73;1.97;;;5.00;99.90;;;;;;5005616;28;20219;-68
2021/12/05 04:15:22;;;;;;;6.77;2.10;;;5.10;99.90;;;;;;5005303;28;20200;-68
2021/12/05 04:17:49;;;;;;;4.30;1.90;;;5.10;99.90;;;;;;5012151;28;20558;-68
2021/12/05 04:20:17;;;;;;;5.63;1.77;;;5.00;99.90;;;;;;5011779;28;20594;-67
2021/12/05 04:22:46;;;;;;;8.50;1.97;;;4.90;99.90;;;;;;5006316;28;20230;-68
2021/12/05 04:25:14;;;;;;;6.90;1.90;;;4.90;99.90;;;;;;5009749;28;20200;-68
2021/12/05 04:27:43;;;;;;;4.77;1.90;;;4.90;99.90;;;;;;5009884;28;20192;-68
2021/12/05 04:30:12;;;;;;;7.03;1.90;;;4.90;99.90;;;;;;5005242;28;20200;-68
2021/12/05 04:32:39;;;;;;;3.70;1.90;;;4.90;99.90;;;;;;5008225;28;20571;-68
2021/12/05 04:35:07;;;;;;;3.73;1.73;;;4.90;99.90;;;;;;5009692;28;20196;-68
2021/12/05 04:37:34;;;;;;;3.23;1.40;;;4.90;99.90;;;;;;5009165;28;20192;-68
2021/12/05 04:40:03;;;;;;;5.17;1.43;;;4.80;99.90;;;;;;5003838;28;20196;-68
2021/12/05 04:42:31;;;;;;;7.00;1.70;;;4.80;99.90;;;;;;5007627;28;20580;-68
2021/12/05 04:45:01;;;;;;;5.53;1.63;;;4.70;99.90;;;;;;5009867;28;20238;-68
2021/12/05 04:47:28;;;;;;;6.37;1.80;;;4.70;99.90;;;;;;5007246;28;20203;-68
2021/12/05 04:49:55;;;;;;;4.17;1.67;;;4.80;99.90;;;;;;5009398;28;20199;-67
2021/12/05 04:52:22;;;;;;;6.90;1.83;;;4.90;99.90;;;;;;5007450;28;20220;-68
2021/12/05 04:54:49;;;;;;;4.70;1.57;;;4.80;99.90;;;;;;5007958;28;20202;-68
2021/12/05 04:57:15;;;;;;;1.77;1.60;;;4.80;99.90;;;;;;5004444;28;20196;-68
2021/12/05 04:59:47;;;;;;;3.67;1.83;;;4.80;99.90;;;;;;5011770;28;20206;-68
2021/12/05 05:02:15;;;;;;;3.87;1.43;;;5.00;99.90;;;;;;5012916;28;20235;-68
2021/12/05 05:04:45;;;;;;;5.03;1.97;;;5.00;99.90;;;;;;5006277;28;20611;-68
2021/12/05 05:07:23;;;;;;;2.30;1.30;;;5.00;99.90;;;;;;5011277;28;20660;-68
2021/12/05 05:09:53;;;;;;;2.50;1.40;;;5.00;99.90;;;;;;5013000;28;20203;-68
2021/12/05 05:12:20;;;;;;;6.00;1.40;;;5.00;99.90;;;;;;5013127;28;20199;-67
2021/12/05 05:14:47;;;;;;;3.87;1.60;;;5.10;99.90;;;;;;5012084;28;20195;-68
2021/12/05 05:17:14;;;;;;;4.63;1.57;;;5.10;99.90;;;;;;5007722;28;20557;-68
2021/12/05 05:19:47;;;;;;;4.20;1.70;;;5.20;99.90;;;;;;5011871;28;20204;-68
2021/12/05 05:22:30;;;;;;;4.30;1.30;;;5.30;99.90;;;;;;5011441;28;20220;-67
2021/12/05 05:27:48;;;;;;;3.20;1.83;;;5.30;99.90;;;;;;5013249;28;20189;-68
2021/12/05 05:41:56;;;;;;;6.07;2.50;;;5.50;99.90;;;;;;5009191;28;20220;-68
2021/12/05 05:47:02;;;;;;;4.83;1.83;;;5.40;99.90;;;;;;5010582;28;20216;-68
2021/12/05 05:52:12;;;;;;;3.47;1.90;;;5.30;99.90;;;;;;5011790;28;20215;-68
2021/12/05 05:54:39;;;;;;;3.43;1.77;;;5.20;99.90;;;;;;5011860;28;20209;-68
2021/12/05 05:57:16;;;;;;;5.00;1.80;;;5.10;99.90;;;;;;5009590;28;20205;-68
2021/12/05 05:59:55;;;;;;;4.00;1.90;;;5.10;99.90;;;;;;5010835;28;20675;-68
2021/12/05 06:05:08;;;;;;;5.30;2.17;;;5.20;99.90;;;;;;5010383;28;20200;-69
2021/12/05 06:07:41;;;;;;;4.50;2.40;;;5.20;99.90;;;;;;5011583;28;20644;-70
2021/12/05 06:10:15;;;;;;;6.77;1.90;;;5.10;99.90;;;;;;5011338;28;20200;-70
2021/12/05 06:12:42;;;;;;;5.00;2.13;;;5.10;99.90;;;;;;5005665;28;20731;-70
2021/12/05 06:15:12;;;;;;;3.73;2.00;;;5.10;99.90;;;;;;5009800;28;20204;-71
2021/12/05 06:17:40;;;;;;;5.00;2.30;;;5.00;99.90;;;;;;5010962;28;20203;-70
2021/12/05 06:20:09;;;;;;;6.37;2.30;;;5.00;99.90;;;;;;5011318;28;20702;-70
2021/12/05 06:22:36;;;;;;;5.80;2.57;;;5.10;99.90;;;;;;5003767;28;20224;-70
2021/12/05 06:25:06;;;;;;;5.07;2.33;;;5.20;99.90;;;;;;5008834;28;20203;-70
2021/12/05 06:27:32;;;;;;;5.90;2.20;;;5.10;99.90;;;;;;5010177;28;20206;-70
2021/12/05 06:30:31;;;;;;;4.57;2.30;;;5.20;99.90;;;;;;5010769;28;20199;-70
2021/12/05 06:46:24;;;;;;;4.73;2.50;;;5.40;99.90;;;;;;5005630;28;20196;-70
2021/12/05 06:48:52;;;;;;;6.63;2.20;;;5.40;99.90;;;;;;5002476;28;20192;-70
2021/12/05 06:51:23;;;;;;;5.80;2.73;;;5.50;99.90;;;;;;5009222;28;20200;-69
2021/12/05 06:53:51;;;;;;;4.67;2.77;;;5.50;99.90;;;;;;5011232;28;20216;-69
2021/12/05 06:56:18;;;;;;;4.50;2.40;;;5.50;99.90;;;;;;5009931;28;20196;-70
2021/12/05 06:58:46;;;;;;;5.23;2.40;;;5.50;99.90;;;;;;5010433;28;20200;-70
2021/12/05 07:01:14;;;;;;;3.83;2.30;;;5.50;99.90;;;;;;5004476;28;20692;-70
2021/12/05 07:03:45;;;;;;;5.93;2.50;;;5.60;99.90;;;;;;5011181;28;20247;-70
2021/12/05 07:06:21;;;;;;;6.23;2.20;;;5.60;99.90;;;;;;5011508;28;20601;-68
2021/12/05 07:08:48;;;;;;;3.67;1.63;;;5.60;99.90;;;;;;5009630;28;20195;-68
2021/12/05 07:16:16;;;;;;;5.77;2.20;;;5.70;99.90;;;;;;5008935;28;20200;-67
2021/12/05 07:21:47;;;;;;;3.80;1.60;;;5.80;99.90;;;;;;5017024;28;20244;-70
2021/12/05 07:40:35;;;;;;;5.10;1.70;;;5.70;99.90;;;;;;5011002;28;20206;-70
2021/12/05 07:43:05;;;;;;;4.87;1.90;;;5.70;99.90;;;;;;5010306;28;20226;-70
2021/12/05 07:45:41;;;;;;;4.37;1.60;;;5.80;99.90;;;;;;5010422;28;20203;-69
2021/12/05 07:48:15;;;;;;;5.07;1.70;;;5.90;99.90;;;;;;5006930;28;21376;-70
2021/12/05 07:51:12;;;;;;;3.97;1.43;;;5.80;99.90;;;;;;5010075;28;20196;-70
2021/12/05 07:53:52;;;;;;;4.80;1.43;;;5.90;99.90;;;;;;5004144;28;20599;-70
2021/12/05 07:56:34;;;;;;;5.27;1.70;;;5.70;99.90;;;;;;5006338;28;20665;-70
2021/12/05 08:15:40;;;;;;;8.57;2.20;;;5.50;99.90;;;;;;5009375;28;20200;-70
2021/12/05 08:18:07;;;;;;;6.00;2.17;;;5.60;99.90;;;;;;5008180;28;20633;-70
2021/12/05 08:20:39;;;;;;;8.77;2.17;;;5.60;99.90;;;;;;5007896;28;20201;-69
2021/12/05 08:23:07;;;;;;;4.33;2.17;;;5.60;99.90;;;;;;5008357;28;20227;-68
2021/12/05 08:25:36;;;;;;;7.60;2.60;;;5.60;99.90;;;;;;5006667;28;20628;-68
2021/12/05 08:31:07;;;;;;;4.23;1.87;;;5.60;99.90;;;;;;5007198;28;20198;-68
2021/12/05 09:28:31;;;;;;;6.60;1.90;;;6.90;99.90;;;;;;5049272;28;20199;-68
2021/12/05 09:39:42;;;;;;;2.90;1.60;;;6.80;99.90;;;;;;4991049;28;20203;-68
2021/12/05 10:07:15;;;;;;;4.97;2.00;;;7.10;99.90;;;;;;5009807;28;20204;-68
2021/12/05 10:15:20;;;;;;;3.67;1.97;;;7.40;99.90;;;;;;5008195;28;20205;-68
2021/12/05 10:37:21;;;;;;;6.17;2.43;;;7.80;99.90;;;;;;5011143;28;20191;-69
2021/12/05 10:40:05;;;;;;;3.87;2.33;;;7.90;99.90;;;;;;5006603;28;20682;-67
2021/12/05 10:42:43;;;;;;;2.93;1.90;;;8.10;99.90;;;;;;5008347;28;20221;-67
2021/12/05 10:45:22;;;;;;;4.10;1.93;;;8.10;99.90;;;;;;5011067;28;20199;-66
2021/12/05 10:47:51;;;;;;;4.33;1.70;;;8.20;99.90;;;;;;5011343;28;20196;-67
2021/12/05 10:50:41;;;;;;;5.73;2.00;;;8.30;99.90;;;;;;5010178;28;20226;-67
2021/12/05 10:53:18;;;;;;;4.97;2.00;;;8.40;99.90;;;;;;5009462;28;20239;-67
2021/12/05 10:55:45;;;;;;;2.90;1.70;;;8.70;99.90;;;;;;5010606;28;20196;-66
2021/12/05 10:58:12;;;;;;;2.63;1.43;;;8.60;99.90;;;;;;5009891;28;20579;-67
2021/12/05 11:00:38;;;;;;;4.37;2.03;;;8.60;99.90;;;;;;5025549;28;20195;-68
2021/12/05 11:03:20;;;;;;;6.77;2.77;;;8.50;99.90;;;;;;5010402;28;20688;-69
2021/12/05 11:05:47;;;;;;;4.83;1.97;;;8.40;99.90;;;;;;5008596;28;20283;-70
2021/12/05 11:08:35;;;;;;;3.13;1.80;;;8.40;99.90;;;;;;5007039;28;20228;-68
2021/12/05 11:11:10;;;;;;;3.57;2.00;;;8.30;99.90;;;;;;5007514;28;20203;-70
2021/12/05 11:13:38;;;;;;;4.77;2.40;;;8.50;99.90;;;;;;5010073;28;20226;-69
2021/12/05 11:16:32;;;;;;;4.47;2.73;;;8.50;99.90;;;;;;5006165;28;20202;-69
2021/12/05 11:19:00;;;;;;;4.33;2.20;;;8.50;99.90;;;;;;5005775;28;20227;-68
2021/12/05 11:21:34;;;;;;;5.23;1.83;;;8.50;99.90;;;;;;5010929;28;20196;-69
2021/12/05 11:24:12;;;;;;;3.30;1.80;;;8.50;99.90;;;;;;5004341;28;20230;-68
2021/12/05 11:26:41;;;;;;;5.07;2.17;;;8.40;99.90;;;;;;5009657;28;20195;-69
2021/12/05 11:29:10;;;;;;;5.03;1.80;;;8.30;99.90;;;;;;5010175;28;20191;-68
2021/12/05 11:31:38;;;;;;;3.33;1.43;;;8.20;99.90;;;;;;5008638;28;20215;-68
2021/12/05 11:34:05;;;;;;;3.83;1.50;;;8.30;99.90;;;;;;5009841;28;20205;-68
2021/12/05 11:36:36;;;;;;;2.57;1.50;;;8.40;99.90;;;;;;5009618;28;20203;-70
2021/12/05 11:39:23;;;;;;;2.57;1.50;;;8.70;99.90;;;;;;5006334;28;20658;-68
2021/12/05 11:41:51;;;;;;;4.33;1.70;;;9.10;99.90;;;;;;5010061;28;20195;-69
2021/12/05 11:44:20;;;;;;;3.97;1.70;;;9.30;99.90;;;;;;5010422;28;20220;-68
2021/12/05 11:46:47;;;;;;;2.77;1.40;;;9.50;99.90;;;;;;5007698;28;20650;-68
2021/12/05 11:49:21;;;;;;;4.03;1.60;;;9.70;99.90;;;;;;5005050;28;20192;-69
2021/12/05 11:51:52;;;;;;;3.47;1.40;;;9.80;99.90;;;;;;5010034;28;20207;-68
2021/12/05 11:54:27;;;;;;;3.10;1.33;;;9.70;99.90;;;;;;5000948;28;20588;-69
2021/12/05 11:57:27;;;;;;;1.70;1.30;;;9.60;99.90;;;;;;5004354;28;20198;-68
2021/12/05 11:59:56;;;;;;;2.37;1.30;;;9.50;99.90;;;;;;5000075;28;20225;-68
2021/12/05 12:02:30;;;;;;;4.43;1.40;;;9.30;99.90;;;;;;5009875;28;20218;-68
2021/12/05 12:05:32;;;;;;;2.93;1.80;;;9.20;99.90;;;;;;5008994;28;20211;-68
2021/12/05 12:08:07;;;;;;;2.80;1.17;;;9.00;99.90;;;;;;5002535;28;20330;-69
2021/12/05 12:10:38;;;;;;;3.33;1.20;;;9.00;99.90;;;;;;5010022;28;20191;-70
2021/12/05 12:13:10;;;;;;;1.23;0.93;;;9.10;99.90;;;;;;5008176;28;20227;-70
2021/12/05 12:15:42;;;;;;;1.83;1.27;;;9.20;99.90;;;;;;5009339;28;20200;-69
2021/12/05 12:18:21;;;;;;;2.40;1.20;;;9.20;99.90;;;;;;5001200;28;20656;-69
2021/12/05 12:20:48;;;;;;;2.77;1.67;;;9.10;99.90;;;;;;5007705;28;20216;-69
2021/12/05 12:23:17;;;;;;;10.47;4.20;;;9.00;99.90;;;;;;5008606;28;20640;-70
2021/12/05 12:25:47;;;;;;;3.00;1.53;;;8.90;99.90;;;;;;5009062;28;20211;-69
2021/12/05 12:28:14;;;;;;;2.63;1.30;;;8.70;99.90;;;;;;5010051;28;20275;-69
2021/12/05 12:30:44;;;;;;;2.77;1.20;;;8.80;99.90;;;;;;5007437;28;20576;-69
2021/12/05 12:33:22;;;;;;;1.53;1.17;;;8.80;99.90;;;;;;5006359;28;20216;-69
2021/12/05 12:35:50;;;;;;;1.43;1.07;;;8.90;99.90;;;;;;5001800;28;20199;-69
2021/12/05 12:38:21;;;;;;;5.33;1.00;;;9.00;99.90;;;;;;5008904;28;20258;-68
2021/12/05 12:40:49;;;;;;;1.87;1.20;;;9.10;99.90;;;;;;5009095;28;20497;-67
2021/12/05 12:43:38;;;;;;;2.70;1.30;;;9.10;99.90;;;;;;5002437;28;20219;-67
2021/12/05 12:46:40;;;;;;;2.60;1.50;;;9.00;99.90;;;;;;5003544;28;20195;-67
2021/12/05 12:49:16;;;;;;;3.63;1.83;;;9.10;99.90;;;;;;5008172;28;20199;-67
2021/12/05 12:51:49;;;;;;;5.00;2.30;;;9.10;99.90;;;;;;5009452;28;20669;-68
2021/12/05 12:54:36;;;;;;;4.23;1.77;;;9.10;99.90;;;;;;5009019;28;20238;-67
2021/12/05 12:57:16;;;;;;;1.43;1.27;;;9.10;99.90;;;;;;5003968;28;20195;-67
2021/12/05 13:00:01;;;;;;;3.03;2.10;;;9.10;99.90;;;;;;5008487;28;20209;-67
2021/12/05 13:03:28;;;;;;;2.07;1.47;;;9.10;99.90;;;;;;5041095;28;20226;-67
2021/12/05 13:11:01;;;;;;;1.17;0.83;;;8.70;99.90;;;;;;5005574;28;20198;-67
2021/12/05 13:13:29;;;;;;;3.73;0.80;;;8.70;99.90;;;;;;5004821;28;20242;-67
2021/12/05 13:16:20;;;;;;;2.30;0.97;;;8.70;99.90;;;;;;5008234;28;20200;-67
2021/12/05 13:19:05;;;;;;;2.30;1.00;;;8.70;99.90;;;;;;5006661;28;20208;-67
2021/12/05 13:21:38;;;;;;;1.07;0.80;;;8.80;99.90;;;;;;5012235;28;20193;-67
2021/12/05 13:24:32;;;;;;;1.47;1.03;;;8.80;99.90;;;;;;5012072;28;20584;-68
2021/12/05 13:27:07;;;;;;;2.03;1.50;;;8.80;99.90;;;;;;5010776;28;20192;-67
2021/12/05 13:29:48;;;;;;;1.70;1.30;;;8.90;99.90;;;;;;5002812;28;20569;-67
2021/12/05 13:32:26;;;;;;;4.73;1.23;;;9.00;99.90;;;;;;5009886;28;20816;-67
2021/12/05 13:35:03;;;;;;;2.37;1.10;;;9.00;99.90;;;;;;5012995;28;20197;-67
2021/12/05 13:37:34;;;;;;;0.83;0.80;;;9.00;99.90;;;;;;5000929;28;20203;-67
2021/12/05 13:40:07;;;;;;;0.80;0.80;;;9.00;99.90;;;;;;5012037;28;20700;-67
2021/12/05 13:42:34;;;;;;;0.77;0.77;;;9.00;99.90;;;;;;5013645;28;20448;-69
2021/12/05 13:45:06;;;;;;;1.30;0.90;;;8.80;99.90;;;;;;5010373;28;20205;-70
2021/12/05 13:47:39;;;;;;;1.17;0.73;;;8.90;99.90;;;;;;5003288;28;20203;-67
2021/12/05 13:50:18;;;;;;;1.60;0.90;;;8.80;99.90;;;;;;5008421;28;20210;-67
2021/12/05 13:53:02;;;;;;;1.47;1.00;;;8.70;99.90;;;;;;5007766;28;20316;-68
2021/12/05 13:55:56;;;;;;;1.43;1.00;;;8.70;99.90;;;;;;5005199;28;20692;-68
2021/12/05 13:58:41;;;;;;;2.57;1.03;;;8.70;99.90;;;;;;5005256;28;20197;-68
2021/12/05 14:01:25;;;;;;;1.43;0.97;;;8.80;99.90;;;;;;5008176;28;20567;-68
2021/12/05 14:04:00;;;;;;;1.43;1.33;;;8.80;99.90;;;;;;4999990;28;20228;-68
2021/12/05 14:06:27;;;;;;;2.03;1.40;;;8.70;99.90;;;;;;5008550;28;20188;-68
2021/12/05 14:09:15;;;;;;;4.13;2.53;;;8.50;99.90;;;;;;5006095;28;20197;-67
2021/12/05 14:11:50;;;;;;;2.00;1.37;;;8.30;99.90;;;;;;5010456;28;20660;-68
2021/12/05 14:14:23;;;;;;;1.43;1.27;;;8.30;99.90;;;;;;5000793;28;20310;-67
2021/12/05 14:16:52;;;;;;;1.20;1.00;;;8.10;99.90;;;;;;5009750;28;20209;-68
2021/12/05 14:19:25;;;;;;;1.33;1.00;;;8.10;99.90;;;;;;5010166;28;20212;-67
2021/12/05 14:21:55;;;;;;;1.23;1.07;;;8.20;99.90;;;;;;5001895;28;20210;-68
2021/12/05 14:24:24;;;;;;;2.67;1.50;;;8.20;99.90;;;;;;5006378;28;20231;-67
2021/12/05 14:26:54;;;;;;;4.27;1.60;;;8.30;99.90;;;;;;5004830;28;20218;-68
2021/12/05 14:29:25;;;;;;;2.47;1.50;;;8.20;99.90;;;;;;5009365;28;20690;-68
2021/12/05 14:32:00;;;;;;;2.80;1.40;;;8.10;99.90;;;;;;5006310;28;20192;-68
2021/12/05 14:34:28;;;;;;;2.20;1.30;;;8.10;99.90;;;;;;5011955;28;20219;-67
2021/12/05 14:37:07;;;;;;;2.13;1.30;;;8.00;99.90;;;;;;4988727;28;20300;-67
2021/12/05 14:39:37;;;;;;;1.97;1.37;;;7.80;99.90;;;;;;5008973;28;20213;-67
2021/12/05 14:42:07;;;;;;;2.63;1.40;;;7.80;99.90;;;;;;5020836;28;20215;-67
2021/12/05 14:44:37;;;;;;;2.70;1.50;;;7.80;99.90;;;;;;5009720;28;20220;-67
2021/12/05 14:47:10;;;;;;;4.67;1.60;;;7.70;99.90;;;;;;5008236;28;20688;-67
2021/12/05 14:49:41;;;;;;;2.83;1.70;;;7.80;99.90;;;;;;5004606;28;20201;-68
2021/12/05 14:52:15;;;;;;;2.60;1.40;;;7.70;99.90;;;;;;5004992;28;20204;-67
2021/12/05 14:54:42;;;;;;;2.30;1.30;;;7.70;99.90;;;;;;5012919;28;20203;-67
2021/12/05 14:57:14;;;;;;;2.60;1.30;;;7.60;99.90;;;;;;5001952;28;20196;-67
2021/12/05 14:59:42;;;;;;;2.27;1.37;;;7.50;99.90;;;;;;5007190;28;20207;-67
2021/12/05 15:02:09;;;;;;;4.00;2.03;;;7.40;99.90;;;;;;5007160;28;20201;-67
2021/12/05 15:04:40;;;;;;;1.83;1.17;;;7.30;99.90;;;;;;5003743;28;20743;-67
2021/12/05 15:07:08;;;;;;;2.63;1.03;;;7.20;99.90;;;;;;5003234;28;20188;-66
2021/12/05 15:09:44;;;;;;;2.43;1.03;;;7.00;99.90;;;;;;5007705;28;20231;-66
2021/12/05 15:12:16;;;;;;;2.30;1.00;;;6.90;99.90;;;;;;5006893;28;20210;-66
2021/12/05 15:14:46;;;;;;;1.80;1.10;;;6.90;99.90;;;;;;5001399;28;20205;-66
2021/12/05 15:17:14;;;;;;;0.73;0.60;;;7.00;99.90;;;;;;5009053;28;20600;-66
2021/12/05 15:19:48;;;;;;;1.40;1.00;;;6.90;99.90;;;;;;5001878;28;20291;-66
2021/12/05 15:22:35;;;;;;;1.57;1.20;;;6.80;99.90;;;;;;5007699;28;20767;-66
2021/12/05 15:25:09;;;;;;;2.63;1.40;;;6.70;99.90;;;;;;5005015;28;20221;-67
2021/12/05 15:27:37;;;;;;;2.47;1.20;;;6.60;99.90;;;;;;5008625;28;20205;-66
2021/12/05 15:30:03;;;;;;;0.93;0.90;;;6.60;99.90;;;;;;4996084;28;20201;-66
2021/12/05 15:32:32;;;;;;;1.00;0.90;;;6.60;99.90;;;;;;5005734;28;20733;-67
2021/12/05 15:35:08;;;;;;;12.47;4.13;;;6.50;99.90;;;;;;5013591;28;20227;-67
2021/12/05 15:37:35;;;;;;;7.40;3.10;;;6.50;99.90;;;;;;5006870;28;20198;-67
2021/12/05 15:40:04;;;;;;;13.77;6.10;;;6.70;99.90;;;;;;5007303;28;20205;-67
2021/12/05 15:42:37;;;;;;;9.97;4.43;;;6.60;99.90;;;;;;5005547;28;20220;-67
2021/12/05 15:45:09;;;;;;;2.83;1.70;;;6.60;99.90;;;;;;5014281;28;20221;-67
2021/12/05 15:47:38;;;;;;;5.10;1.93;;;6.60;99.90;;;;;;5008930;28;20193;-67
2021/12/05 15:50:14;;;;;;;2.20;1.53;;;6.60;99.90;;;;;;5007032;28;20646;-67
2021/12/05 15:52:53;;;;;;;1.70;1.23;;;6.60;99.90;;;;;;5006127;28;20228;-67
2021/12/05 15:55:23;;;;;;;2.50;1.70;;;6.70;99.90;;;;;;5009954;28;20192;-67
2021/12/05 15:57:54;;;;;;;5.03;1.57;;;6.70;99.90;;;;;;5001703;28;20479;-67
2021/12/05 16:00:27;;;;;;;9.60;3.37;;;6.70;99.90;;;;;;5004207;28;20557;-67
2021/12/05 16:03:02;;;;;;;3.20;1.83;;;6.70;99.90;;;;;;4996939;28;20216;-66
2021/12/05 16:05:31;;;;;;;2.07;1.30;;;6.70;99.90;;;;;;5006213;28;20269;-66
2021/12/05 16:08:07;;;;;;;3.10;1.20;;;6.70;99.90;;;;;;5004965;28;20193;-66
2021/12/05 16:10:37;;;;;;;1.40;0.97;;;6.70;99.90;;;;;;5009103;28;20192;-66
2021/12/05 16:13:32;;;;;;;1.90;1.10;;;6.70;99.90;;;;;;5010365;28;20562;-67
2021/12/05 16:16:16;;;;;;;2.43;1.50;;;6.60;99.90;;;;;;5004146;28;20216;-67
2021/12/05 16:18:48;;;;;;;1.60;1.37;;;6.60;99.90;;;;;;5007531;28;20200;-68
2021/12/05 16:21:17;;;;;;;1.23;1.10;;;6.60;99.90;;;;;;4998793;28;20203;-66
2021/12/05 16:23:45;;;;;;;2.67;1.67;;;6.60;99.90;;;;;;5003429;28;20228;-66
2021/12/05 16:26:15;;;;;;;2.37;1.40;;;6.50;99.90;;;;;;5000205;28;20658;-66
2021/12/05 16:28:48;;;;;;;2.67;1.40;;;6.50;99.90;;;;;;5007937;28;20569;-66
2021/12/05 16:31:21;;;;;;;2.30;1.30;;;6.50;99.90;;;;;;5008722;28;20192;-67
2021/12/05 16:34:01;;;;;;;2.00;1.17;;;6.50;99.90;;;;;;5005855;28;20221;-66
2021/12/05 16:36:32;;;;;;;2.47;1.20;;;6.40;99.90;;;;;;5005453;28;20691;-66
2021/12/05 16:39:07;;;;;;;1.67;1.13;;;6.30;99.90;;;;;;5009149;28;20209;-66
2021/12/05 16:41:34;;;;;;;2.60;1.40;;;6.30;99.90;;;;;;5010832;28;20226;-66
2021/12/05 16:44:03;;;;;;;2.33;1.23;;;6.20;99.90;;;;;;5006208;28;20298;-66
2021/12/05 16:47:04;;;;;;;3.30;1.97;;;6.10;99.90;;;;;;5008407;28;20196;-66
2021/12/05 16:49:34;;;;;;;3.00;1.97;;;6.10;99.90;;;;;;5003848;28;20203;-66
2021/12/05 16:52:06;;;;;;;2.90;1.60;;;6.20;99.90;;;;;;5004869;28;20200;-66
2021/12/05 16:54:50;;;;;;;3.20;2.10;;;6.00;99.90;;;;;;5008222;28;20315;-66
2021/12/05 16:57:30;;;;;;;4.73;2.50;;;5.90;99.90;;;;;;5011435;28;20204;-66
2021/12/05 17:00:00;;;;;;;6.30;2.73;;;5.90;99.90;;;;;;5009097;28;20202;-66
2021/12/05 17:02:32;;;;;;;5.40;2.90;;;5.90;99.90;;;;;;5008507;28;20219;-66
2021/12/05 17:05:26;;;;;;;3.40;2.40;;;5.90;99.90;;;;;;5007826;28;20215;-66
2021/12/05 17:08:13;;;;;;;6.37;2.07;;;5.90;99.90;;;;;;5009493;28;20567;-66
2021/12/05 17:10:51;;;;;;;3.43;2.13;;;5.90;99.90;;;;;;5009816;28;20199;-66
2021/12/05 17:13:39;;;;;;;2.83;2.03;;;5.70;99.90;;;;;;5011773;28;20216;-66
2021/12/05 17:16:22;;;;;;;2.47;1.70;;;5.60;99.90;;;;;;5010572;28;20478;-66
2021/12/05 17:19:02;;;;;;;2.83;2.00;;;5.60;99.90;;;;;;5013647;28;20196;-66
2021/12/05 17:21:35;;;;;;;2.17;1.80;;;5.70;99.90;;;;;;5005044;28;20577;-66
2021/12/05 17:24:21;;;;;;;3.73;1.97;;;5.70;99.90;;;;;;5011597;28;20224;-66
2021/12/05 17:27:01;;;;;;;3.60;1.97;;;5.50;99.90;;;;;;5007618;28;20584;-66
2021/12/05 17:29:37;;;;;;;2.30;1.80;;;5.40;99.90;;;;;;5010718;28;20653;-66
2021/12/05 17:32:08;;;;;;;3.03;1.80;;;5.40;99.90;;;;;;5000587;28;20590;-66
2021/12/05 17:34:46;;;;;;;3.47;1.40;;;5.60;99.90;;;;;;5008292;28;20204;-66
2021/12/05 17:37:22;;;;;;;3.83;1.80;;;5.60;99.90;;;;;;5012532;28;20199;-66
2021/12/05 17:39:50;;;;;;;2.50;1.90;;;5.60;99.90;;;;;;5013379;28;20196;-66
2021/12/05 17:42:20;;;;;;;3.20;1.80;;;5.70;99.90;;;;;;5018044;28;20200;-66
2021/12/05 17:44:52;;;;;;;2.57;1.97;;;5.70;99.90;;;;;;5009815;28;20220;-66
2021/12/05 17:47:20;;;;;;;2.50;1.73;;;5.60;99.90;;;;;;5008807;28;20562;-66
2021/12/05 17:49:50;;;;;;;2.83;1.77;;;5.60;99.90;;;;;;5010592;28;20235;-66
2021/12/05 17:52:20;;;;;;;3.40;2.17;;;5.50;99.90;;;;;;5008784;28;20203;-66
2021/12/05 17:55:03;;;;;;;5.20;2.13;;;5.40;99.90;;;;;;5011207;28;20280;-66
2021/12/05 17:57:43;;;;;;;3.00;2.10;;;5.40;99.90;;;;;;5010947;28;20208;-66
2021/12/05 18:02:35;;;;;;;4.37;1.97;;;5.30;99.90;;;;;;5009365;28;20204;-66
2021/12/05 18:03:12;;;;;;;3.00;2.07;;;5.30;99.90;;;;;;5010141;28;20219;-66
2021/12/05 18:05:49;;;;;;;3.70;2.63;;;5.30;99.90;;;;;;5020045;28;20233;-66
2021/12/05 18:08:22;;;;;;;7.03;2.73;;;5.30;99.90;;;;;;5013671;28;20188;-66
2021/12/05 18:10:57;;;;;;;4.33;2.87;;;5.30;99.90;;;;;;4996668;28;20222;-66
2021/12/05 18:13:25;;;;;;;4.87;2.43;;;5.40;99.90;;;;;;5010293;28;20711;-66
2021/12/05 18:16:03;;;;;;;4.57;2.80;;;5.50;99.90;;;;;;5004894;28;20193;-66
2021/12/05 18:18:32;;;;;;;3.70;2.57;;;5.50;99.90;;;;;;5011558;28;20196;-66
2021/12/05 18:21:00;;;;;;;3.53;2.40;;;5.50;99.90;;;;;;5013326;28;20212;-66
2021/12/05 18:23:27;;;;;;;4.00;2.43;;;5.60;99.90;;;;;;5008163;28;20227;-66
2021/12/05 18:25:56;;;;;;;5.63;2.40;;;5.50;99.90;;;;;;5008573;28;20242;-66
2021/12/05 18:28:23;;;;;;;4.77;3.03;;;5.60;99.90;;;;;;5007650;28;20196;-66
2021/12/05 18:30:50;;;;;;;6.87;2.60;;;5.70;99.90;;;;;;5009723;28;20195;-65
2021/12/05 18:33:21;;;;;;;3.87;2.53;;;5.70;99.90;;;;;;5009860;28;20219;-66
2021/12/05 18:35:48;;;;;;;4.37;2.97;;;5.70;99.90;;;;;;5008836;28;20200;-66
2021/12/05 18:38:19;;;;;;;6.10;3.73;;;5.60;99.90;;;;;;5009547;28;20192;-66
2021/12/05 18:40:48;;;;;;;6.50;3.60;;;5.70;99.90;;;;;;5009988;28;20204;-66
2021/12/05 18:43:17;;;;;;;6.80;3.90;;;5.60;99.90;;;;;;5009761;28;20212;-66
2021/12/05 18:45:44;;;;;;;7.10;4.00;;;5.60;99.90;;;;;;5009459;28;20591;-66